Time,TemperatureF,DewpointF,PressureIn,WindDirection,WindDirectionDegrees,WindSpeedMPH,WindSpeedGustMPH,Humidity,HourlyPrecipIn,Conditions,Clouds,dailyrainin,SolarRadiationWatts/m^2,SoftwareType,DateUTC
2013-01-26 00:03:00,12.0,8.0,-100.00,NNE,33,3.0,6.0,83,0.00,,,0.00,0.000000,,2013-01-26 05:03:00,
2013-01-26 00:12:00,12.0,8.0,-100.00,NNE,33,3.0,6.0,83,0.00,,,0.00,0.000000,,2013-01-26 05:12:00,
2013-01-26 00:33:00,10.0,6.0,-100.00,North,359,1.0,4.0,83,0.00,,,0.00,0.000000,,2013-01-26 05:33:00,
2013-01-26 00:42:00,10.0,6.0,-100.00,North,359,1.0,4.0,83,0.00,,,0.00,0.000000,,2013-01-26 05:42:00,
2013-01-26 00:53:00,10.0,6.0,-100.00,North,359,1.0,4.0,83,0.00,,,0.00,0.000000,,2013-01-26 05:53:00,
2013-01-26 01:03:00,10.0,6.0,-100.00,North,359,1.0,4.0,83,0.00,,,0.00,0.000000,,2013-01-26 06:03:00,
2013-01-26 01:12:00,10.0,6.0,-100.00,North,359,1.0,4.0,83,0.00,,,0.00,0.000000,,2013-01-26 06:12:00,
2013-01-26 01:32:00,5.0,1.0,-100.00,NNW,328,0.0,2.0,82,0.00,,,0.00,0.000000,,2013-01-26 06:32:00,
2013-01-26 01:42:00,5.0,1.0,-100.00,NNW,328,0.0,2.0,82,0.00,,,0.00,0.000000,,2013-01-26 06:42:00,
2013-01-26 01:52:00,5.0,1.0,-100.00,NNW,328,0.0,2.0,82,0.00,,,0.00,0.000000,,2013-01-26 06:52:00,
2013-01-26 02:02:00,5.0,1.0,-100.00,NNW,328,0.0,2.0,82,0.00,,,0.00,0.000000,,2013-01-26 07:02:00,
2013-01-26 02:12:00,5.0,1.0,-100.00,NNW,328,0.0,2.0,82,0.00,,,0.00,0.000000,,2013-01-26 07:12:00,
2013-01-26 02:33:00,6.0,2.0,-100.00,NW,321,1.0,3.0,83,0.00,,,0.00,0.000000,,2013-01-26 07:33:00,
2013-01-26 02:42:00,6.0,2.0,-100.00,NW,321,1.0,3.0,83,0.00,,,0.00,0.000000,,2013-01-26 07:42:00,
2013-01-26 02:52:00,6.0,2.0,-100.00,NW,321,1.0,3.0,83,0.00,,,0.00,0.000000,,2013-01-26 07:52:00,
2013-01-26 03:02:00,6.0,2.0,-100.00,NW,321,1.0,3.0,83,0.00,,,0.00,0.000000,,2013-01-26 08:02:00,
2013-01-26 03:11:00,6.0,2.0,-100.00,NW,321,1.0,3.0,83,0.00,,,0.00,0.000000,,2013-01-26 08:11:00,
2013-01-26 03:42:00,3.0,-2.0,-100.00,NNW,335,0.0,2.0,79,0.00,,,0.00,0.000000,,2013-01-26 08:42:00,
2013-01-26 03:54:00,3.0,-2.0,-100.00,NNW,335,0.0,2.0,79,0.00,,,0.00,0.000000,,2013-01-26 08:54:00,
2013-01-26 04:02:00,3.0,-2.0,-100.00,NNW,335,0.0,2.0,79,0.00,,,0.00,0.000000,,2013-01-26 09:02:00,
2013-01-26 04:11:00,3.0,-2.0,-100.00,NNW,335,0.0,2.0,79,0.00,,,0.00,0.000000,,2013-01-26 09:11:00,
2013-01-26 04:32:00,0.0,-5.0,-100.00,North,359,1.0,3.0,79,0.00,,,0.00,0.000000,,2013-01-26 09:32:00,
2013-01-26 04:42:00,0.0,-5.0,-100.00,North,359,1.0,3.0,79,0.00,,,0.00,0.000000,,2013-01-26 09:42:00,
2013-01-26 04:52:00,0.0,-5.0,-100.00,North,359,1.0,3.0,79,0.00,,,0.00,0.000000,,2013-01-26 09:52:00,
2013-01-26 05:01:00,0.0,-5.0,-100.00,North,359,1.0,3.0,79,0.00,,,0.00,0.000000,,2013-01-26 10:01:00,
2013-01-26 05:12:00,0.0,-5.0,-100.00,North,359,1.0,3.0,79,0.00,,,0.00,0.000000,,2013-01-26 10:12:00,
2013-01-26 05:43:00,3.0,-1.0,-100.00,WNW,282,1.0,2.0,82,0.00,,,0.00,0.000000,,2013-01-26 10:43:00,
2013-01-26 05:52:00,3.0,-1.0,-100.00,WNW,282,1.0,2.0,82,0.00,,,0.00,0.000000,,2013-01-26 10:52:00,
2013-01-26 06:02:00,3.0,-1.0,-100.00,WNW,282,1.0,2.0,82,0.00,,,0.00,0.000000,,2013-01-26 11:02:00,
2013-01-26 06:12:00,3.0,-1.0,-100.00,WNW,282,1.0,2.0,82,0.00,,,0.00,0.000000,,2013-01-26 11:12:00,
2013-01-26 06:32:00,7.0,3.0,-100.00,WNW,302,2.0,3.0,83,0.00,,,0.00,0.000000,,2013-01-26 11:32:00,
2013-01-26 06:42:00,7.0,3.0,-100.00,WNW,302,2.0,3.0,83,0.00,,,0.00,0.000000,,2013-01-26 11:42:00,
2013-01-26 06:52:00,7.0,3.0,-100.00,WNW,302,2.0,3.0,83,0.00,,,0.00,0.000000,,2013-01-26 11:52:00,
2013-01-26 07:02:00,7.0,3.0,-100.00,WNW,302,2.0,3.0,83,0.00,,,0.00,0.000000,,2013-01-26 12:02:00,
2013-01-26 07:12:00,7.0,3.0,-100.00,WNW,302,2.0,3.0,83,0.00,,,0.00,0.000000,,2013-01-26 12:12:00,
2013-01-26 07:33:00,9.0,4.0,-100.00,NNW,333,4.0,7.0,81,0.00,,,0.00,0.000000,,2013-01-26 12:33:00,
2013-01-26 07:42:00,9.0,4.0,-100.00,NNW,333,4.0,7.0,81,0.00,,,0.00,0.000000,,2013-01-26 12:42:00,
2013-01-26 07:53:00,9.0,4.0,-100.00,NNW,333,4.0,7.0,81,0.00,,,0.00,0.000000,,2013-01-26 12:53:00,
2013-01-26 08:04:00,9.0,4.0,-100.00,NNW,333,4.0,7.0,81,0.00,,,0.00,0.000000,,2013-01-26 13:04:00,
2013-01-26 08:12:00,9.0,4.0,-100.00,NNW,333,4.0,7.0,81,0.00,,,0.00,0.000000,,2013-01-26 13:12:00,
2013-01-26 08:42:00,8.0,3.0,-100.00,NNW,333,4.0,6.0,79,0.00,,,0.00,21.000000,,2013-01-26 13:42:00,
2013-01-26 08:53:00,8.0,3.0,-100.00,NNW,333,4.0,6.0,79,0.00,,,0.00,21.000000,,2013-01-26 13:53:00,
2013-01-26 09:03:00,8.0,3.0,-100.00,NNW,333,4.0,6.0,79,0.00,,,0.00,21.000000,,2013-01-26 14:03:00,
2013-01-26 09:12:00,8.0,3.0,-100.00,NNW,333,4.0,6.0,79,0.00,,,0.00,21.000000,,2013-01-26 14:12:00,
2013-01-26 09:32:00,11.0,4.0,-100.00,NNW,346,3.0,6.0,74,0.00,,,0.00,105.000000,,2013-01-26 14:32:00,
2013-01-26 09:43:00,11.0,4.0,-100.00,NNW,346,3.0,6.0,74,0.00,,,0.00,105.000000,,2013-01-26 14:43:00,
2013-01-26 09:53:00,11.0,4.0,-100.00,NNW,346,3.0,6.0,74,0.00,,,0.00,105.000000,,2013-01-26 14:53:00,
2013-01-26 10:03:00,11.0,4.0,-100.00,NNW,346,3.0,6.0,74,0.00,,,0.00,105.000000,,2013-01-26 15:03:00,
2013-01-26 10:12:00,11.0,4.0,-100.00,NNW,346,3.0,6.0,74,0.00,,,0.00,105.000000,,2013-01-26 15:12:00,
2013-01-26 10:33:00,12.0,4.0,-100.00,North,0,3.0,9.0,68,0.00,,,0.00,88.000000,,2013-01-26 15:33:00,
2013-01-26 10:43:00,12.0,4.0,-100.00,North,0,3.0,9.0,68,0.00,,,0.00,88.000000,,2013-01-26 15:43:00,
2013-01-26 10:53:00,12.0,4.0,-100.00,North,0,3.0,9.0,68,0.00,,,0.00,88.000000,,2013-01-26 15:53:00,
2013-01-26 11:03:00,12.0,4.0,-100.00,North,0,3.0,9.0,68,0.00,,,0.00,88.000000,,2013-01-26 16:03:00,
2013-01-26 11:12:00,12.0,4.0,-100.00,North,0,3.0,9.0,68,0.00,,,0.00,88.000000,,2013-01-26 16:12:00,
2013-01-26 11:33:00,15.0,1.0,-100.00,North,359,6.0,9.0,54,0.00,,,0.00,221.000000,,2013-01-26 16:33:00,
2013-01-26 11:43:00,15.0,1.0,-100.00,North,359,6.0,9.0,54,0.00,,,0.00,221.000000,,2013-01-26 16:43:00,
2013-01-26 11:53:00,15.0,1.0,-100.00,North,359,6.0,9.0,54,0.00,,,0.00,221.000000,,2013-01-26 16:53:00,
2013-01-26 12:03:00,15.0,1.0,-100.00,North,359,6.0,9.0,54,0.00,,,0.00,221.000000,,2013-01-26 17:03:00,
2013-01-26 12:13:00,15.0,1.0,-100.00,North,359,6.0,9.0,54,0.00,,,0.00,221.000000,,2013-01-26 17:13:00,
2013-01-26 12:33:00,18.0,-3.0,-100.00,North,350,7.0,14.0,38,0.00,,,0.00,263.000000,,2013-01-26 17:33:00,
2013-01-26 12:42:00,18.0,-3.0,-100.00,North,350,7.0,14.0,38,0.00,,,0.00,263.000000,,2013-01-26 17:42:00,
2013-01-26 12:53:00,18.0,-3.0,-100.00,North,350,7.0,14.0,38,0.00,,,0.00,263.000000,,2013-01-26 17:53:00,
2013-01-26 13:03:00,18.0,-3.0,-100.00,North,350,7.0,14.0,38,0.00,,,0.00,263.000000,,2013-01-26 18:03:00,
2013-01-26 13:12:00,18.0,-3.0,-100.00,North,350,7.0,14.0,38,0.00,,,0.00,263.000000,,2013-01-26 18:12:00,
2013-01-26 13:42:00,20.0,-1.0,-100.00,NNW,336,5.0,13.0,38,0.00,,,0.00,276.000000,,2013-01-26 18:42:00,
2013-01-26 13:53:00,20.0,-1.0,-100.00,NNW,336,5.0,13.0,38,0.00,,,0.00,276.000000,,2013-01-26 18:53:00,
2013-01-26 14:03:00,20.0,-1.0,-100.00,NNW,336,5.0,13.0,38,0.00,,,0.00,276.000000,,2013-01-26 19:03:00,
2013-01-26 14:12:00,20.0,-1.0,-100.00,NNW,336,5.0,13.0,38,0.00,,,0.00,276.000000,,2013-01-26 19:12:00,
2013-01-26 14:43:00,20.0,-1.0,-100.00,NNW,332,9.0,19.0,38,0.00,,,0.00,263.000000,,2013-01-26 19:43:00,
2013-01-26 14:53:00,20.0,-1.0,-100.00,NNW,332,9.0,19.0,38,0.00,,,0.00,263.000000,,2013-01-26 19:53:00,
2013-01-26 15:02:00,20.0,-1.0,-100.00,NNW,332,9.0,19.0,38,0.00,,,0.00,263.000000,,2013-01-26 20:02:00,
2013-01-26 15:11:00,20.0,-1.0,-100.00,NNW,332,9.0,19.0,38,0.00,,,0.00,263.000000,,2013-01-26 20:11:00,
2013-01-26 15:42:00,20.0,-1.0,-100.00,NNW,329,7.0,16.0,39,0.00,,,0.00,140.000000,,2013-01-26 20:42:00,
2013-01-26 15:52:00,20.0,-1.0,-100.00,NNW,329,7.0,16.0,39,0.00,,,0.00,140.000000,,2013-01-26 20:52:00,
2013-01-26 16:03:00,20.0,-1.0,-100.00,NNW,329,7.0,16.0,39,0.00,,,0.00,140.000000,,2013-01-26 21:03:00,
2013-01-26 16:12:00,20.0,-1.0,-100.00,NNW,329,7.0,16.0,39,0.00,,,0.00,140.000000,,2013-01-26 21:12:00,
2013-01-26 16:32:00,19.0,-2.0,-100.00,NW,318,8.0,19.0,39,0.00,,,0.00,95.000000,,2013-01-26 21:32:00,
2013-01-26 16:43:00,19.0,-2.0,-100.00,NW,318,8.0,19.0,39,0.00,,,0.00,95.000000,,2013-01-26 21:43:00,
2013-01-26 16:52:00,19.0,-2.0,-100.00,NW,318,8.0,19.0,39,0.00,,,0.00,95.000000,,2013-01-26 21:52:00,
2013-01-26 17:02:00,19.0,-2.0,-100.00,NW,318,8.0,19.0,39,0.00,,,0.00,95.000000,,2013-01-26 22:02:00,
2013-01-26 17:12:00,19.0,-2.0,-100.00,NW,318,8.0,19.0,39,0.00,,,0.00,95.000000,,2013-01-26 22:12:00,
2013-01-26 17:42:00,17.0,-1.0,-100.00,NNW,327,9.0,20.0,44,0.00,,,0.00,28.000000,,2013-01-26 22:42:00,
2013-01-26 17:52:00,17.0,-1.0,-100.00,NNW,327,9.0,20.0,44,0.00,,,0.00,28.000000,,2013-01-26 22:52:00,
2013-01-26 18:02:00,17.0,-1.0,-100.00,NNW,327,9.0,20.0,44,0.00,,,0.00,28.000000,,2013-01-26 23:02:00,
2013-01-26 18:12:00,17.0,-1.0,-100.00,NNW,327,9.0,20.0,44,0.00,,,0.00,28.000000,,2013-01-26 23:12:00,
2013-01-26 18:42:00,15.0,0.0,-100.00,NW,325,6.0,16.0,50,0.00,,,0.00,0.000000,,2013-01-26 23:42:00,
2013-01-26 18:52:00,15.0,0.0,-100.00,NW,325,6.0,16.0,50,0.00,,,0.00,0.000000,,2013-01-26 23:52:00,
2013-01-26 19:02:00,15.0,0.0,-100.00,NW,325,6.0,16.0,50,0.00,,,0.00,0.000000,,2013-01-27 00:02:00,
2013-01-26 19:12:00,15.0,0.0,-100.00,NW,325,6.0,16.0,50,0.00,,,0.00,0.000000,,2013-01-27 00:12:00,
2013-01-26 19:32:00,14.0,0.0,-100.00,NW,321,5.0,13.0,52,0.00,,,0.00,0.000000,,2013-01-27 00:32:00,
2013-01-26 19:42:00,14.0,0.0,-100.00,NW,321,5.0,13.0,52,0.00,,,0.00,0.000000,,2013-01-27 00:42:00,
2013-01-26 19:52:00,14.0,0.0,-100.00,NW,321,5.0,13.0,52,0.00,,,0.00,0.000000,,2013-01-27 00:52:00,
2013-01-26 20:02:00,14.0,0.0,-100.00,NW,321,5.0,13.0,52,0.00,,,0.00,0.000000,,2013-01-27 01:02:00,
2013-01-26 20:11:00,14.0,0.0,-100.00,NW,321,5.0,13.0,52,0.00,,,0.00,0.000000,,2013-01-27 01:11:00,
2013-01-26 20:32:00,14.0,1.0,-100.00,NW,316,5.0,12.0,56,0.00,,,0.00,0.000000,,2013-01-27 01:32:00,
2013-01-26 20:42:00,14.0,1.0,-100.00,NW,316,5.0,12.0,56,0.00,,,0.00,0.000000,,2013-01-27 01:42:00,
2013-01-26 20:52:00,14.0,1.0,-100.00,NW,316,5.0,12.0,56,0.00,,,0.00,0.000000,,2013-01-27 01:52:00,
2013-01-26 21:02:00,14.0,1.0,-100.00,NW,316,5.0,12.0,56,0.00,,,0.00,0.000000,,2013-01-27 02:02:00,
2013-01-26 21:12:00,14.0,1.0,-100.00,NW,316,5.0,12.0,56,0.00,,,0.00,0.000000,,2013-01-27 02:12:00,
2013-01-26 21:42:00,13.0,2.0,-100.00,NW,318,5.0,11.0,60,0.00,,,0.00,0.000000,,2013-01-27 02:42:00,
2013-01-26 21:52:00,13.0,2.0,-100.00,NW,318,5.0,11.0,60,0.00,,,0.00,0.000000,,2013-01-27 02:52:00,
2013-01-26 22:02:00,13.0,2.0,-100.00,NW,318,5.0,11.0,60,0.00,,,0.00,0.000000,,2013-01-27 03:02:00,
2013-01-26 22:11:00,13.0,2.0,-100.00,NW,318,5.0,11.0,60,0.00,,,0.00,0.000000,,2013-01-27 03:11:00,
2013-01-26 22:32:00,12.0,1.0,-100.00,NW,307,1.0,12.0,60,0.00,,,0.00,0.000000,,2013-01-27 03:32:00,
2013-01-26 22:42:00,12.0,1.0,-100.00,NW,307,1.0,12.0,60,0.00,,,0.00,0.000000,,2013-01-27 03:42:00,
2013-01-26 22:52:00,12.0,1.0,-100.00,NW,307,1.0,12.0,60,0.00,,,0.00,0.000000,,2013-01-27 03:52:00,
2013-01-26 23:02:00,12.0,1.0,-100.00,NW,307,1.0,12.0,60,0.00,,,0.00,0.000000,,2013-01-27 04:02:00,
2013-01-26 23:12:00,12.0,1.0,-100.00,NW,307,1.0,12.0,60,0.00,,,0.00,0.000000,,2013-01-27 04:12:00,
2013-01-26 23:32:00,10.0,1.0,-100.00,WNW,285,2.0,5.0,65,0.00,,,0.00,0.000000,,2013-01-27 04:32:00,
2013-01-26 23:42:00,10.0,1.0,-100.00,WNW,285,2.0,5.0,65,0.00,,,0.00,0.000000,,2013-01-27 04:42:00,
2013-01-26 23:52:00,10.0,1.0,-100.00,WNW,285,2.0,5.0,65,0.00,,,0.00,0.000000,,2013-01-27 04:52:00,